sensor_id;sensor_type;location;lat;lon;timestamp;temperature;humidity
42339;DHT22;27993;45.392;10.918;2024-03-02T00:00:11;11.30;99.90
42339;DHT22;27993;45.392;10.918;2024-03-02T00:02:44;11.40;99.90
42339;DHT22;27993;45.392;10.918;2024-03-02T00:05:15;11.40;99.90
42339;DHT22;27993;45.392;10.918;2024-03-02T00:07:53;11.40;99.90
42339;DHT22;27993;45.392;10.918;2024-03-02T00:10:40;11.40;99.90
42339;DHT22;27993;45.392;10.918;2024-03-02T00:13:12;11.40;99.90
42339;DHT22;27993;45.392;10.918;2024-03-02T00:18:30;11.40;99.90
42339;DHT22;27993;45.392;10.918;2024-03-02T00:21:01;11.40;99.90
42339;DHT22;27993;45.392;10.918;2024-03-02T00:23:33;11.40;99.90
42339;DHT22;27993;45.392;10.918;2024-03-02T00:26:05;11.40;99.90
42339;DHT22;27993;45.392;10.918;2024-03-02T00:28:36;11.30;99.90
42339;DHT22;27993;45.392;10.918;2024-03-02T00:31:12;11.30;99.90
42339;DHT22;27993;45.392;10.918;2024-03-02T00:33:45;11.40;99.90
42339;DHT22;27993;45.392;10.918;2024-03-02T00:36:22;11.40;99.90
42339;DHT22;27993;45.392;10.918;2024-03-02T00:38:53;11.40;99.90
42339;DHT22;27993;45.392;10.918;2024-03-02T00:41:30;11.50;99.90
42339;DHT22;27993;45.392;10.918;2024-03-02T00:44:01;11.50;99.90
42339;DHT22;27993;45.392;10.918;2024-03-02T00:46:36;11.50;99.90
42339;DHT22;27993;45.392;10.918;2024-03-02T00:51:54;11.40;99.90
42339;DHT22;27993;45.392;10.918;2024-03-02T00:54:28;11.40;99.90
42339;DHT22;27993;45.392;10.918;2024-03-02T00:56:59;11.40;99.90
42339;DHT22;27993;45.392;10.918;2024-03-02T00:59:30;11.40;99.90
42339;DHT22;27993;45.392;10.918;2024-03-02T01:02:02;11.50;99.90
42339;DHT22;27993;45.392;10.918;2024-03-02T01:04:32;11.40;99.90
42339;DHT22;27993;45.392;10.918;2024-03-02T01:07:03;11.50;99.90
42339;DHT22;27993;45.392;10.918;2024-03-02T01:09:34;11.40;99.90
42339;DHT22;27993;45.392;10.918;2024-03-02T01:12:05;11.40;99.90
42339;DHT22;27993;45.392;10.918;2024-03-02T01:14:35;11.40;99.90
42339;DHT22;27993;45.392;10.918;2024-03-02T01:17:06;11.50;99.90
42339;DHT22;27993;45.392;10.918;2024-03-02T01:19:36;11.40;99.90
42339;DHT22;27993;45.392;10.918;2024-03-02T01:22:08;11.30;99.90
42339;DHT22;27993;45.392;10.918;2024-03-02T01:24:39;11.40;99.90
42339;DHT22;27993;45.392;10.918;2024-03-02T01:27:09;11.40;99.90
42339;DHT22;27993;45.392;10.918;2024-03-02T01:29:40;11.40;99.90
42339;DHT22;27993;45.392;10.918;2024-03-02T01:32:10;11.40;99.90
42339;DHT22;27993;45.392;10.918;2024-03-02T01:34:41;11.40;99.90
42339;DHT22;27993;45.392;10.918;2024-03-02T01:37:12;11.40;99.90
42339;DHT22;27993;45.392;10.918;2024-03-02T01:39:43;11.40;99.90
42339;DHT22;27993;45.392;10.918;2024-03-02T01:42:14;11.40;99.90
42339;DHT22;27993;45.392;10.918;2024-03-02T01:44:44;11.40;99.90
42339;DHT22;27993;45.392;10.918;2024-03-02T01:47:15;11.40;99.90
42339;DHT22;27993;45.392;10.918;2024-03-02T01:49:46;11.40;99.90
42339;DHT22;27993;45.392;10.918;2024-03-02T01:52:16;11.40;99.90
42339;DHT22;27993;45.392;10.918;2024-03-02T01:54:47;11.40;99.90
42339;DHT22;27993;45.392;10.918;2024-03-02T01:57:18;11.40;99.90
42339;DHT22;27993;45.392;10.918;2024-03-02T01:59:49;11.40;99.90
42339;DHT22;27993;45.392;10.918;2024-03-02T02:02:21;11.40;99.90
42339;DHT22;27993;45.392;10.918;2024-03-02T02:04:52;11.40;99.90
42339;DHT22;27993;45.392;10.918;2024-03-02T02:07:22;11.30;99.90
42339;DHT22;27993;45.392;10.918;2024-03-02T02:09:53;11.40;99.90
42339;DHT22;27993;45.392;10.918;2024-03-02T02:12:24;11.30;99.90
42339;DHT22;27993;45.392;10.918;2024-03-02T02:14:54;11.30;99.90
42339;DHT22;27993;45.392;10.918;2024-03-02T02:17:25;11.40;99.90
42339;DHT22;27993;45.392;10.918;2024-03-02T02:19:56;11.40;99.90
42339;DHT22;27993;45.392;10.918;2024-03-02T02:22:26;11.40;99.90
42339;DHT22;27993;45.392;10.918;2024-03-02T02:24:57;11.40;99.90
42339;DHT22;27993;45.392;10.918;2024-03-02T02:27:27;11.40;99.90
42339;DHT22;27993;45.392;10.918;2024-03-02T02:29:58;11.30;99.90
42339;DHT22;27993;45.392;10.918;2024-03-02T02:32:30;11.30;99.90
42339;DHT22;27993;45.392;10.918;2024-03-02T02:35:00;11.20;99.90
42339;DHT22;27993;45.392;10.918;2024-03-02T02:37:31;11.20;99.90
42339;DHT22;27993;45.392;10.918;2024-03-02T02:40:01;11.20;99.90
42339;DHT22;27993;45.392;10.918;2024-03-02T02:42:32;11.10;99.90
42339;DHT22;27993;45.392;10.918;2024-03-02T02:45:03;11.10;99.90
42339;DHT22;27993;45.392;10.918;2024-03-02T02:47:34;11.10;99.90
42339;DHT22;27993;45.392;10.918;2024-03-02T02:50:08;11.10;99.90
42339;DHT22;27993;45.392;10.918;2024-03-02T02:52:41;11.20;99.90
42339;DHT22;27993;45.392;10.918;2024-03-02T02:55:13;11.20;99.90
42339;DHT22;27993;45.392;10.918;2024-03-02T02:57:44;11.20;99.90
42339;DHT22;27993;45.392;10.918;2024-03-02T03:00:16;11.30;99.90
42339;DHT22;27993;45.392;10.918;2024-03-02T03:02:49;11.30;99.90
42339;DHT22;27993;45.392;10.918;2024-03-02T03:05:20;11.30;99.90
42339;DHT22;27993;45.392;10.918;2024-03-02T03:07:50;11.30;99.90
42339;DHT22;27993;45.392;10.918;2024-03-02T03:10:21;11.20;99.90
42339;DHT22;27993;45.392;10.918;2024-03-02T03:12:53;11.20;99.90
42339;DHT22;27993;45.392;10.918;2024-03-02T03:15:26;11.30;99.90
42339;DHT22;27993;45.392;10.918;2024-03-02T03:17:57;11.30;99.90
42339;DHT22;27993;45.392;10.918;2024-03-02T03:20:28;11.20;99.90
42339;DHT22;27993;45.392;10.918;2024-03-02T03:22:58;11.20;99.90
42339;DHT22;27993;45.392;10.918;2024-03-02T03:25:29;11.30;99.90
42339;DHT22;27993;45.392;10.918;2024-03-02T03:28:00;11.20;99.90
42339;DHT22;27993;45.392;10.918;2024-03-02T03:30:31;11.20;99.90
42339;DHT22;27993;45.392;10.918;2024-03-02T03:33:02;11.20;99.90
42339;DHT22;27993;45.392;10.918;2024-03-02T03:35:33;11.20;99.90
42339;DHT22;27993;45.392;10.918;2024-03-02T03:38:04;11.20;99.90
42339;DHT22;27993;45.392;10.918;2024-03-02T03:40:34;11.20;99.90
42339;DHT22;27993;45.392;10.918;2024-03-02T03:43:05;11.30;99.90
42339;DHT22;27993;45.392;10.918;2024-03-02T03:45:36;11.20;99.90
42339;DHT22;27993;45.392;10.918;2024-03-02T03:48:06;11.30;99.90
42339;DHT22;27993;45.392;10.918;2024-03-02T03:50:37;11.20;99.90
42339;DHT22;27993;45.392;10.918;2024-03-02T03:53:08;11.20;99.90
42339;DHT22;27993;45.392;10.918;2024-03-02T03:55:39;11.20;99.90
42339;DHT22;27993;45.392;10.918;2024-03-02T03:58:09;11.20;99.90
42339;DHT22;27993;45.392;10.918;2024-03-02T04:00:40;11.20;99.90
42339;DHT22;27993;45.392;10.918;2024-03-02T04:03:11;11.30;99.90
42339;DHT22;27993;45.392;10.918;2024-03-02T04:05:41;11.20;99.90
42339;DHT22;27993;45.392;10.918;2024-03-02T04:08:12;11.30;99.90
42339;DHT22;27993;45.392;10.918;2024-03-02T04:10:42;11.30;99.90
42339;DHT22;27993;45.392;10.918;2024-03-02T04:13:13;11.20;99.90
42339;DHT22;27993;45.392;10.918;2024-03-02T04:15:44;11.20;99.90
42339;DHT22;27993;45.392;10.918;2024-03-02T04:18:15;11.30;99.90
42339;DHT22;27993;45.392;10.918;2024-03-02T04:20:46;11.40;99.90
42339;DHT22;27993;45.392;10.918;2024-03-02T04:23:16;11.30;99.90
42339;DHT22;27993;45.392;10.918;2024-03-02T04:25:47;11.40;99.90
42339;DHT22;27993;45.392;10.918;2024-03-02T04:28:18;11.40;99.90
42339;DHT22;27993;45.392;10.918;2024-03-02T04:30:48;11.40;99.90
42339;DHT22;27993;45.392;10.918;2024-03-02T04:33:19;11.40;99.90
42339;DHT22;27993;45.392;10.918;2024-03-02T04:35:49;11.40;99.90
42339;DHT22;27993;45.392;10.918;2024-03-02T04:38:20;11.40;99.90
42339;DHT22;27993;45.392;10.918;2024-03-02T04:40:50;11.40;99.90
42339;DHT22;27993;45.392;10.918;2024-03-02T04:43:21;11.30;99.90
42339;DHT22;27993;45.392;10.918;2024-03-02T04:45:52;11.30;99.90
42339;DHT22;27993;45.392;10.918;2024-03-02T04:48:22;11.20;99.90
42339;DHT22;27993;45.392;10.918;2024-03-02T04:50:53;11.20;99.90
42339;DHT22;27993;45.392;10.918;2024-03-02T04:53:24;11.20;99.90
42339;DHT22;27993;45.392;10.918;2024-03-02T04:55:55;11.20;99.90
42339;DHT22;27993;45.392;10.918;2024-03-02T04:58:26;11.10;99.90
42339;DHT22;27993;45.392;10.918;2024-03-02T05:00:56;11.10;99.90
42339;DHT22;27993;45.392;10.918;2024-03-02T05:03:27;11.10;99.90
42339;DHT22;27993;45.392;10.918;2024-03-02T05:05:58;11.20;99.90
42339;DHT22;27993;45.392;10.918;2024-03-02T05:08:28;11.20;99.90
42339;DHT22;27993;45.392;10.918;2024-03-02T05:10:59;11.10;99.90
42339;DHT22;27993;45.392;10.918;2024-03-02T05:13:49;11.20;99.90
42339;DHT22;27993;45.392;10.918;2024-03-02T05:16:20;11.30;99.90
42339;DHT22;27993;45.392;10.918;2024-03-02T05:18:51;11.30;99.90
42339;DHT22;27993;45.392;10.918;2024-03-02T05:21:21;11.30;99.90
42339;DHT22;27993;45.392;10.918;2024-03-02T05:23:52;11.30;99.90
42339;DHT22;27993;45.392;10.918;2024-03-02T05:26:23;11.30;99.90
42339;DHT22;27993;45.392;10.918;2024-03-02T05:28:53;11.20;99.90
42339;DHT22;27993;45.392;10.918;2024-03-02T05:31:24;11.10;99.90
42339;DHT22;27993;45.392;10.918;2024-03-02T05:33:55;11.10;99.90
42339;DHT22;27993;45.392;10.918;2024-03-02T05:36:25;11.00;99.90
42339;DHT22;27993;45.392;10.918;2024-03-02T05:38:56;11.10;99.90
42339;DHT22;27993;45.392;10.918;2024-03-02T05:41:26;11.20;99.90
42339;DHT22;27993;45.392;10.918;2024-03-02T05:43:57;11.10;99.90
42339;DHT22;27993;45.392;10.918;2024-03-02T05:46:28;11.20;99.90
42339;DHT22;27993;45.392;10.918;2024-03-02T05:48:59;11.20;99.90
42339;DHT22;27993;45.392;10.918;2024-03-02T05:51:31;11.10;99.90
42339;DHT22;27993;45.392;10.918;2024-03-02T05:54:01;11.10;99.90
42339;DHT22;27993;45.392;10.918;2024-03-02T05:56:33;11.10;99.90
42339;DHT22;27993;45.392;10.918;2024-03-02T05:59:03;11.10;99.90
42339;DHT22;27993;45.392;10.918;2024-03-02T06:01:44;11.10;99.90
42339;DHT22;27993;45.392;10.918;2024-03-02T06:04:17;11.00;99.90
42339;DHT22;27993;45.392;10.918;2024-03-02T06:06:47;11.00;99.90
42339;DHT22;27993;45.392;10.918;2024-03-02T06:09:19;11.10;99.90
42339;DHT22;27993;45.392;10.918;2024-03-02T06:11:50;11.10;99.90
42339;DHT22;27993;45.392;10.918;2024-03-02T06:14:21;11.10;99.90
42339;DHT22;27993;45.392;10.918;2024-03-02T06:16:51;11.20;99.90
42339;DHT22;27993;45.392;10.918;2024-03-02T06:19:22;11.10;99.90
42339;DHT22;27993;45.392;10.918;2024-03-02T06:21:52;11.00;99.90
42339;DHT22;27993;45.392;10.918;2024-03-02T06:24:23;11.00;99.90
42339;DHT22;27993;45.392;10.918;2024-03-02T06:26:54;11.10;99.90
42339;DHT22;27993;45.392;10.918;2024-03-02T06:29:24;11.10;99.90
42339;DHT22;27993;45.392;10.918;2024-03-02T06:31:55;11.10;99.90
42339;DHT22;27993;45.392;10.918;2024-03-02T06:34:25;11.10;99.90
42339;DHT22;27993;45.392;10.918;2024-03-02T06:36:56;11.10;99.90
42339;DHT22;27993;45.392;10.918;2024-03-02T06:39:27;11.10;99.90
42339;DHT22;27993;45.392;10.918;2024-03-02T06:41:57;11.10;99.90
42339;DHT22;27993;45.392;10.918;2024-03-02T06:44:28;11.10;99.90
42339;DHT22;27993;45.392;10.918;2024-03-02T06:46:58;11.10;99.90
42339;DHT22;27993;45.392;10.918;2024-03-02T06:49:29;11.10;99.90
42339;DHT22;27993;45.392;10.918;2024-03-02T06:52:00;11.20;99.90
42339;DHT22;27993;45.392;10.918;2024-03-02T06:54:30;11.20;99.90
42339;DHT22;27993;45.392;10.918;2024-03-02T06:57:01;11.20;99.90
42339;DHT22;27993;45.392;10.918;2024-03-02T06:59:31;11.20;99.90
42339;DHT22;27993;45.392;10.918;2024-03-02T07:02:04;11.10;99.90
42339;DHT22;27993;45.392;10.918;2024-03-02T07:04:35;11.00;99.90
42339;DHT22;27993;45.392;10.918;2024-03-02T07:07:05;11.00;99.90
42339;DHT22;27993;45.392;10.918;2024-03-02T07:09:36;11.00;99.90
42339;DHT22;27993;45.392;10.918;2024-03-02T07:12:07;10.90;99.90
42339;DHT22;27993;45.392;10.918;2024-03-02T07:14:37;10.90;99.90
42339;DHT22;27993;45.392;10.918;2024-03-02T07:17:26;11.00;99.90
42339;DHT22;27993;45.392;10.918;2024-03-02T07:19:57;11.00;99.90
42339;DHT22;27993;45.392;10.918;2024-03-02T07:22:27;10.90;99.90
42339;DHT22;27993;45.392;10.918;2024-03-02T07:24:58;11.00;99.90
42339;DHT22;27993;45.392;10.918;2024-03-02T07:27:30;11.00;99.90
42339;DHT22;27993;45.392;10.918;2024-03-02T07:30:05;11.10;99.90
42339;DHT22;27993;45.392;10.918;2024-03-02T07:32:35;11.10;99.90
42339;DHT22;27993;45.392;10.918;2024-03-02T07:35:06;11.10;99.90
42339;DHT22;27993;45.392;10.918;2024-03-02T07:37:38;11.10;99.90
42339;DHT22;27993;45.392;10.918;2024-03-02T07:40:09;11.10;99.90
42339;DHT22;27993;45.392;10.918;2024-03-02T07:42:43;11.10;99.90
42339;DHT22;27993;45.392;10.918;2024-03-02T07:45:13;11.10;99.90
42339;DHT22;27993;45.392;10.918;2024-03-02T07:47:44;11.10;99.90
42339;DHT22;27993;45.392;10.918;2024-03-02T07:50:15;11.10;99.90
42339;DHT22;27993;45.392;10.918;2024-03-02T07:52:46;11.10;99.90
42339;DHT22;27993;45.392;10.918;2024-03-02T07:55:16;11.00;99.90
42339;DHT22;27993;45.392;10.918;2024-03-02T07:57:47;11.00;99.90
42339;DHT22;27993;45.392;10.918;2024-03-02T08:00:18;11.00;99.90
42339;DHT22;27993;45.392;10.918;2024-03-02T08:02:52;11.00;99.90
42339;DHT22;27993;45.392;10.918;2024-03-02T08:05:23;11.00;99.90
42339;DHT22;27993;45.392;10.918;2024-03-02T08:07:53;11.00;99.90
42339;DHT22;27993;45.392;10.918;2024-03-02T08:10:24;11.00;99.90
42339;DHT22;27993;45.392;10.918;2024-03-02T08:12:55;11.00;99.90
42339;DHT22;27993;45.392;10.918;2024-03-02T08:15:26;11.00;99.90
42339;DHT22;27993;45.392;10.918;2024-03-02T08:17:56;11.00;99.90
42339;DHT22;27993;45.392;10.918;2024-03-02T08:20:27;11.00;99.90
42339;DHT22;27993;45.392;10.918;2024-03-02T08:22:58;11.00;99.90
42339;DHT22;27993;45.392;10.918;2024-03-02T08:25:29;11.00;99.90
42339;DHT22;27993;45.392;10.918;2024-03-02T08:28:00;11.00;99.90
42339;DHT22;27993;45.392;10.918;2024-03-02T08:30:30;11.10;99.90
42339;DHT22;27993;45.392;10.918;2024-03-02T08:33:01;11.20;99.90
42339;DHT22;27993;45.392;10.918;2024-03-02T08:35:31;11.20;99.90
42339;DHT22;27993;45.392;10.918;2024-03-02T08:38:06;11.20;99.90
42339;DHT22;27993;45.392;10.918;2024-03-02T08:40:37;11.20;99.90
42339;DHT22;27993;45.392;10.918;2024-03-02T08:43:08;11.20;99.90
42339;DHT22;27993;45.392;10.918;2024-03-02T08:45:38;11.20;99.90
42339;DHT22;27993;45.392;10.918;2024-03-02T08:48:10;11.20;99.90
42339;DHT22;27993;45.392;10.918;2024-03-02T08:50:40;11.10;99.90
42339;DHT22;27993;45.392;10.918;2024-03-02T08:53:11;11.20;99.90
42339;DHT22;27993;45.392;10.918;2024-03-02T08:55:42;11.10;99.90
42339;DHT22;27993;45.392;10.918;2024-03-02T08:58:12;11.10;99.90
42339;DHT22;27993;45.392;10.918;2024-03-02T09:00:43;11.10;99.90
42339;DHT22;27993;45.392;10.918;2024-03-02T09:03:14;11.20;99.90
42339;DHT22;27993;45.392;10.918;2024-03-02T09:05:45;11.20;99.90
42339;DHT22;27993;45.392;10.918;2024-03-02T09:08:15;11.20;99.90
42339;DHT22;27993;45.392;10.918;2024-03-02T09:10:46;11.20;99.90
42339;DHT22;27993;45.392;10.918;2024-03-02T09:13:17;11.30;99.90
42339;DHT22;27993;45.392;10.918;2024-03-02T09:15:48;11.30;99.90
42339;DHT22;27993;45.392;10.918;2024-03-02T09:18:19;11.20;99.90
42339;DHT22;27993;45.392;10.918;2024-03-02T09:20:49;11.40;99.90
42339;DHT22;27993;45.392;10.918;2024-03-02T09:23:21;11.40;99.90
42339;DHT22;27993;45.392;10.918;2024-03-02T09:25:52;11.40;99.90
42339;DHT22;27993;45.392;10.918;2024-03-02T09:28:22;11.40;99.90
42339;DHT22;27993;45.392;10.918;2024-03-02T09:30:53;11.40;99.90
42339;DHT22;27993;45.392;10.918;2024-03-02T09:33:23;11.40;99.90
42339;DHT22;27993;45.392;10.918;2024-03-02T09:35:54;11.50;99.90
42339;DHT22;27993;45.392;10.918;2024-03-02T09:38:24;11.60;99.90
42339;DHT22;27993;45.392;10.918;2024-03-02T09:40:55;11.60;99.90
42339;DHT22;27993;45.392;10.918;2024-03-02T09:43:26;11.60;99.90
42339;DHT22;27993;45.392;10.918;2024-03-02T09:45:57;11.60;99.90
42339;DHT22;27993;45.392;10.918;2024-03-02T09:48:27;11.60;99.90
42339;DHT22;27993;45.392;10.918;2024-03-02T09:50:59;11.60;99.90
42339;DHT22;27993;45.392;10.918;2024-03-02T09:53:32;11.60;99.90
42339;DHT22;27993;45.392;10.918;2024-03-02T09:56:03;11.60;99.90
42339;DHT22;27993;45.392;10.918;2024-03-02T09:58:35;11.60;99.90
42339;DHT22;27993;45.392;10.918;2024-03-02T10:01:06;11.60;99.90
42339;DHT22;27993;45.392;10.918;2024-03-02T10:03:37;11.70;99.90
42339;DHT22;27993;45.392;10.918;2024-03-02T10:06:24;11.70;99.90
42339;DHT22;27993;45.392;10.918;2024-03-02T10:08:55;11.80;99.90
42339;DHT22;27993;45.392;10.918;2024-03-02T10:11:34;11.80;99.90
42339;DHT22;27993;45.392;10.918;2024-03-02T10:14:13;11.70;99.90
42339;DHT22;27993;45.392;10.918;2024-03-02T10:16:44;11.80;99.90
42339;DHT22;27993;45.392;10.918;2024-03-02T10:19:23;11.70;99.90
42339;DHT22;27993;45.392;10.918;2024-03-02T10:21:54;11.70;99.90
42339;DHT22;27993;45.392;10.918;2024-03-02T10:24:25;11.80;99.90
42339;DHT22;27993;45.392;10.918;2024-03-02T10:26:55;11.80;99.90
42339;DHT22;27993;45.392;10.918;2024-03-02T10:29:29;11.80;99.90
42339;DHT22;27993;45.392;10.918;2024-03-02T10:32:02;11.90;99.90
42339;DHT22;27993;45.392;10.918;2024-03-02T10:34:33;11.90;99.90
42339;DHT22;27993;45.392;10.918;2024-03-02T10:37:04;11.60;99.90
42339;DHT22;27993;45.392;10.918;2024-03-02T10:39:36;11.70;99.90
42339;DHT22;27993;45.392;10.918;2024-03-02T10:42:07;11.70;99.90
42339;DHT22;27993;45.392;10.918;2024-03-02T10:44:38;11.70;99.90
42339;DHT22;27993;45.392;10.918;2024-03-02T10:47:12;11.70;99.90
42339;DHT22;27993;45.392;10.918;2024-03-02T10:49:47;11.70;99.90
42339;DHT22;27993;45.392;10.918;2024-03-02T10:52:18;11.80;99.90
42339;DHT22;27993;45.392;10.918;2024-03-02T10:54:49;11.90;99.90
42339;DHT22;27993;45.392;10.918;2024-03-02T10:57:21;12.00;99.90
42339;DHT22;27993;45.392;10.918;2024-03-02T10:59:56;12.00;99.90
42339;DHT22;27993;45.392;10.918;2024-03-02T11:02:27;12.00;99.90
42339;DHT22;27993;45.392;10.918;2024-03-02T11:04:59;12.00;99.90
42339;DHT22;27993;45.392;10.918;2024-03-02T11:07:31;12.00;99.90
42339;DHT22;27993;45.392;10.918;2024-03-02T11:10:03;12.00;99.90
42339;DHT22;27993;45.392;10.918;2024-03-02T11:12:42;11.90;99.90
42339;DHT22;27993;45.392;10.918;2024-03-02T11:15:17;12.00;99.90
42339;DHT22;27993;45.392;10.918;2024-03-02T11:17:52;12.00;99.90
42339;DHT22;27993;45.392;10.918;2024-03-02T11:20:23;12.10;99.90
42339;DHT22;27993;45.392;10.918;2024-03-02T11:22:55;12.10;99.90
42339;DHT22;27993;45.392;10.918;2024-03-02T11:25:27;12.10;99.90
42339;DHT22;27993;45.392;10.918;2024-03-02T11:28:03;12.10;99.90
42339;DHT22;27993;45.392;10.918;2024-03-02T11:33:06;12.00;99.90
42339;DHT22;27993;45.392;10.918;2024-03-02T11:35:44;12.00;99.90
42339;DHT22;27993;45.392;10.918;2024-03-02T11:38:18;12.10;99.90
42339;DHT22;27993;45.392;10.918;2024-03-02T11:40:49;12.10;99.90
42339;DHT22;27993;45.392;10.918;2024-03-02T11:43:20;12.10;99.90
42339;DHT22;27993;45.392;10.918;2024-03-02T11:45:57;12.10;99.90
42339;DHT22;27993;45.392;10.918;2024-03-02T11:48:29;12.10;99.90
42339;DHT22;27993;45.392;10.918;2024-03-02T11:51:00;12.10;99.90
42339;DHT22;27993;45.392;10.918;2024-03-02T11:53:31;12.10;99.90
42339;DHT22;27993;45.392;10.918;2024-03-02T11:56:03;12.00;99.90
42339;DHT22;27993;45.392;10.918;2024-03-02T11:58:36;12.00;99.90
42339;DHT22;27993;45.392;10.918;2024-03-02T12:01:07;12.00;99.90
42339;DHT22;27993;45.392;10.918;2024-03-02T12:03:38;12.00;99.90
42339;DHT22;27993;45.392;10.918;2024-03-02T12:06:09;12.00;99.90
42339;DHT22;27993;45.392;10.918;2024-03-02T12:08:40;12.10;99.90
42339;DHT22;27993;45.392;10.918;2024-03-02T12:11:13;12.10;99.90
42339;DHT22;27993;45.392;10.918;2024-03-02T12:13:52;12.20;99.90
42339;DHT22;27993;45.392;10.918;2024-03-02T12:16:25;12.20;99.90
42339;DHT22;27993;45.392;10.918;2024-03-02T12:18:56;12.30;99.90
42339;DHT22;27993;45.392;10.918;2024-03-02T12:21:26;12.30;99.90
42339;DHT22;27993;45.392;10.918;2024-03-02T12:23:57;12.30;99.90
42339;DHT22;27993;45.392;10.918;2024-03-02T12:26:28;12.30;99.90
42339;DHT22;27993;45.392;10.918;2024-03-02T12:28:59;12.30;99.90
42339;DHT22;27993;45.392;10.918;2024-03-02T12:31:30;12.40;99.90
42339;DHT22;27993;45.392;10.918;2024-03-02T12:34:02;12.50;99.90
42339;DHT22;27993;45.392;10.918;2024-03-02T12:36:40;12.40;99.90
42339;DHT22;27993;45.392;10.918;2024-03-02T12:39:12;12.40;99.90
42339;DHT22;27993;45.392;10.918;2024-03-02T12:41:43;12.50;99.90
42339;DHT22;27993;45.392;10.918;2024-03-02T12:44:13;12.50;99.90
42339;DHT22;27993;45.392;10.918;2024-03-02T12:46:44;12.30;99.90
42339;DHT22;27993;45.392;10.918;2024-03-02T12:49:16;12.20;99.90
42339;DHT22;27993;45.392;10.918;2024-03-02T12:51:46;12.20;99.90
42339;DHT22;27993;45.392;10.918;2024-03-02T12:54:22;12.20;99.90
42339;DHT22;27993;45.392;10.918;2024-03-02T12:56:56;12.20;99.90
42339;DHT22;27993;45.392;10.918;2024-03-02T12:59:28;12.10;99.90
42339;DHT22;27993;45.392;10.918;2024-03-02T13:01:59;12.10;99.90
42339;DHT22;27993;45.392;10.918;2024-03-02T13:04:29;12.10;99.90
42339;DHT22;27993;45.392;10.918;2024-03-02T13:07:01;12.00;99.90
42339;DHT22;27993;45.392;10.918;2024-03-02T13:09:32;12.10;99.90
42339;DHT22;27993;45.392;10.918;2024-03-02T13:12:04;12.10;99.90
42339;DHT22;27993;45.392;10.918;2024-03-02T13:14:35;12.20;99.90
42339;DHT22;27993;45.392;10.918;2024-03-02T13:17:08;12.20;99.90
42339;DHT22;27993;45.392;10.918;2024-03-02T13:19:50;12.20;99.90
42339;DHT22;27993;45.392;10.918;2024-03-02T13:22:21;12.20;99.90
42339;DHT22;27993;45.392;10.918;2024-03-02T13:24:53;12.30;99.90
42339;DHT22;27993;45.392;10.918;2024-03-02T13:27:27;12.40;99.90
42339;DHT22;27993;45.392;10.918;2024-03-02T13:29:58;12.40;99.90
42339;DHT22;27993;45.392;10.918;2024-03-02T13:32:29;12.30;99.90
42339;DHT22;27993;45.392;10.918;2024-03-02T13:34:59;12.30;99.90
42339;DHT22;27993;45.392;10.918;2024-03-02T13:37:30;12.30;99.90
42339;DHT22;27993;45.392;10.918;2024-03-02T13:40:01;12.40;99.90
42339;DHT22;27993;45.392;10.918;2024-03-02T13:42:32;12.40;99.90
42339;DHT22;27993;45.392;10.918;2024-03-02T13:45:03;12.40;99.90
42339;DHT22;27993;45.392;10.918;2024-03-02T13:47:35;12.40;99.90
42339;DHT22;27993;45.392;10.918;2024-03-02T13:50:06;12.50;99.90
42339;DHT22;27993;45.392;10.918;2024-03-02T13:52:37;12.60;99.90
42339;DHT22;27993;45.392;10.918;2024-03-02T13:55:08;12.60;99.90
42339;DHT22;27993;45.392;10.918;2024-03-02T13:57:39;12.50;99.90
42339;DHT22;27993;45.392;10.918;2024-03-02T14:00:10;12.50;99.90
42339;DHT22;27993;45.392;10.918;2024-03-02T14:02:42;12.40;99.90
42339;DHT22;27993;45.392;10.918;2024-03-02T14:05:13;12.50;99.90
42339;DHT22;27993;45.392;10.918;2024-03-02T14:07:44;12.50;99.90
42339;DHT22;27993;45.392;10.918;2024-03-02T14:10:14;12.50;99.90
42339;DHT22;27993;45.392;10.918;2024-03-02T14:12:45;12.50;99.90
42339;DHT22;27993;45.392;10.918;2024-03-02T14:15:16;12.50;99.90
42339;DHT22;27993;45.392;10.918;2024-03-02T14:17:47;12.40;99.90
42339;DHT22;27993;45.392;10.918;2024-03-02T14:20:17;12.30;99.90
42339;DHT22;27993;45.392;10.918;2024-03-02T14:22:52;12.30;99.90
42339;DHT22;27993;45.392;10.918;2024-03-02T14:25:22;12.30;99.90
42339;DHT22;27993;45.392;10.918;2024-03-02T14:27:53;12.40;99.90
42339;DHT22;27993;45.392;10.918;2024-03-02T14:30:24;12.30;99.90
42339;DHT22;27993;45.392;10.918;2024-03-02T14:32:54;12.30;99.90
42339;DHT22;27993;45.392;10.918;2024-03-02T14:35:25;12.20;99.90
42339;DHT22;27993;45.392;10.918;2024-03-02T14:37:56;12.20;99.90
42339;DHT22;27993;45.392;10.918;2024-03-02T14:40:28;12.20;99.90
42339;DHT22;27993;45.392;10.918;2024-03-02T14:43:00;12.10;99.90
42339;DHT22;27993;45.392;10.918;2024-03-02T14:45:30;12.20;99.90
42339;DHT22;27993;45.392;10.918;2024-03-02T14:48:02;12.10;99.90
42339;DHT22;27993;45.392;10.918;2024-03-02T14:50:32;12.20;99.90
42339;DHT22;27993;45.392;10.918;2024-03-02T14:53:04;12.20;99.90
42339;DHT22;27993;45.392;10.918;2024-03-02T14:55:37;12.20;99.90
42339;DHT22;27993;45.392;10.918;2024-03-02T14:58:08;12.20;99.90
42339;DHT22;27993;45.392;10.918;2024-03-02T15:00:38;12.10;99.90
42339;DHT22;27993;45.392;10.918;2024-03-02T15:03:09;12.10;99.90
42339;DHT22;27993;45.392;10.918;2024-03-02T15:05:40;12.10;99.90
42339;DHT22;27993;45.392;10.918;2024-03-02T15:08:10;12.00;99.90
42339;DHT22;27993;45.392;10.918;2024-03-02T15:10:41;12.00;99.90
42339;DHT22;27993;45.392;10.918;2024-03-02T15:13:12;12.10;99.90
42339;DHT22;27993;45.392;10.918;2024-03-02T15:15:43;12.10;99.90
42339;DHT22;27993;45.392;10.918;2024-03-02T15:18:13;12.00;99.90
42339;DHT22;27993;45.392;10.918;2024-03-02T15:20:44;12.00;99.90
42339;DHT22;27993;45.392;10.918;2024-03-02T15:23:15;12.10;99.90
42339;DHT22;27993;45.392;10.918;2024-03-02T15:25:45;12.10;99.90
42339;DHT22;27993;45.392;10.918;2024-03-02T15:28:16;12.00;99.90
42339;DHT22;27993;45.392;10.918;2024-03-02T15:30:47;12.00;99.90
42339;DHT22;27993;45.392;10.918;2024-03-02T15:33:18;12.00;99.90
42339;DHT22;27993;45.392;10.918;2024-03-02T15:35:48;12.10;99.90
42339;DHT22;27993;45.392;10.918;2024-03-02T15:38:19;12.00;99.90
42339;DHT22;27993;45.392;10.918;2024-03-02T15:40:49;12.00;99.90
42339;DHT22;27993;45.392;10.918;2024-03-02T15:43:20;12.00;99.90
42339;DHT22;27993;45.392;10.918;2024-03-02T15:45:51;12.00;99.90
42339;DHT22;27993;45.392;10.918;2024-03-02T15:48:21;12.10;99.90